Time;durP1;ratioP1;P1;durP2;ratioP2;P2;SDS_P1;SDS_P2;PMS_P1;PMS_P2;Temp;Humidity;BMP_temperature;BMP_pressure;BME280_temperature;BME280_humidity;BME280_pressure;Samples;Min_cycle;Max_cycle;Signal;HPM_P1;HPM_P2
2024/04/02 00:00:35;;;;;;;5.78;2.03;;;;;;;;;;5050812;28;20045;-28
2024/04/02 00:03:02;;;;;;;5.72;2.33;;;;;;;;;;5051408;28;20391;-29
2024/04/02 00:05:29;;;;;;;6.60;2.17;;;;;;;;;;5052254;28;20122;-29
2024/04/02 00:07:58;;;;;;;5.40;1.90;;;;;;;;;;5052118;28;20025;-29
2024/04/02 00:10:25;;;;;;;5.85;2.53;;;;;;;;;;5052075;28;20037;-29
2024/04/02 00:12:52;;;;;;;7.65;2.30;;;;;;;;;;5052000;28;20037;-29
2024/04/02 00:15:19;;;;;;;5.35;2.00;;;;;;;;;;5051997;28;20029;-29
2024/04/02 00:17:46;;;;;;;8.02;2.20;;;;;;;;;;5052202;28;20364;-28
2024/04/02 00:20:13;;;;;;;3.92;1.75;;;;;;;;;;5051982;28;20048;-29
2024/04/02 00:22:43;;;;;;;7.05;2.03;;;;;;;;;;5051235;28;20116;-29
2024/04/02 00:25:20;;;;;;;5.20;1.95;;;;;;;;;;5050791;28;20040;-32
2024/04/02 00:27:47;;;;;;;5.85;2.13;;;;;;;;;;5037232;28;20091;-28
2024/04/02 00:30:24;;;;;;;8.60;2.10;;;;;;;;;;5031267;28;20101;-28
2024/04/02 00:32:51;;;;;;;8.25;2.30;;;;;;;;;;5031491;28;20049;-28
2024/04/02 00:35:19;;;;;;;6.72;2.35;;;;;;;;;;5035803;28;20033;-28
2024/04/02 00:37:47;;;;;;;10.93;2.28;;;;;;;;;;5044427;28;20036;-28
2024/04/02 00:40:15;;;;;;;5.38;2.03;;;;;;;;;;5036695;28;20065;-28
2024/04/02 00:42:43;;;;;;;16.45;2.72;;;;;;;;;;5011695;28;20044;-28
2024/04/02 00:45:10;;;;;;;17.95;2.83;;;;;;;;;;5041651;28;20513;-28
2024/04/02 00:47:37;;;;;;;17.55;2.97;;;;;;;;;;5030872;28;20022;-28
2024/04/02 00:50:04;;;;;;;9.10;2.47;;;;;;;;;;5026668;28;20021;-29
2024/04/02 00:52:31;;;;;;;17.48;2.67;;;;;;;;;;5021782;28;20076;-28
2024/04/02 00:54:59;;;;;;;13.68;2.47;;;;;;;;;;5025385;28;20052;-29
2024/04/02 00:57:26;;;;;;;23.33;2.88;;;;;;;;;;5030599;28;20033;-29
2024/04/02 00:59:54;;;;;;;18.27;3.03;;;;;;;;;;5031211;28;20064;-29
2024/04/02 01:02:21;;;;;;;20.23;2.70;;;;;;;;;;5015239;28;20072;-29
2024/04/02 01:04:48;;;;;;;19.23;3.03;;;;;;;;;;5014696;28;20105;-29
2024/04/02 01:07:15;;;;;;;16.13;2.40;;;;;;;;;;5031103;28;20036;-28
2024/04/02 01:09:43;;;;;;;12.85;2.67;;;;;;;;;;5029137;28;20033;-28
2024/04/02 01:12:10;;;;;;;10.32;2.55;;;;;;;;;;5023698;28;20384;-28
2024/04/02 01:14:41;;;;;;;14.63;2.70;;;;;;;;;;5033309;28;20117;-28
2024/04/02 01:17:08;;;;;;;18.85;2.83;;;;;;;;;;5035320;28;20052;-29
2024/04/02 01:19:35;;;;;;;21.38;3.05;;;;;;;;;;5027525;28;20112;-28
2024/04/02 01:22:03;;;;;;;28.38;3.63;;;;;;;;;;5031013;28;20040;-28
2024/04/02 01:24:30;;;;;;;19.15;3.17;;;;;;;;;;5034933;28;20025;-29
2024/04/02 01:26:58;;;;;;;17.40;2.63;;;;;;;;;;5035052;28;20033;-29
2024/04/02 01:29:24;;;;;;;18.40;2.65;;;;;;;;;;5030891;28;20033;-28
2024/04/02 01:31:51;;;;;;;14.30;2.97;;;;;;;;;;5030818;28;20174;-28
2024/04/02 01:34:19;;;;;;;18.77;3.25;;;;;;;;;;5022714;28;20100;-28
2024/04/02 01:36:46;;;;;;;14.77;3.00;;;;;;;;;;5018262;28;20131;-29
2024/04/02 01:39:13;;;;;;;21.55;2.90;;;;;;;;;;5034444;28;20463;-29
2024/04/02 01:41:40;;;;;;;16.42;3.58;;;;;;;;;;5034564;28;20045;-29
2024/04/02 01:44:07;;;;;;;21.05;3.20;;;;;;;;;;5034728;28;20035;-28
2024/04/02 01:46:34;;;;;;;21.38;2.95;;;;;;;;;;5034457;28;20030;-29
2024/04/02 01:49:01;;;;;;;20.55;3.08;;;;;;;;;;5034566;28;20033;-28
2024/04/02 01:51:28;;;;;;;15.73;3.42;;;;;;;;;;5034319;28;20037;-29
2024/04/02 01:53:55;;;;;;;11.98;2.67;;;;;;;;;;5034510;28;20442;-29
2024/04/02 01:56:22;;;;;;;19.65;3.42;;;;;;;;;;5034312;28;20041;-29
2024/04/02 01:58:49;;;;;;;14.25;2.92;;;;;;;;;;5030329;28;20037;-28
2024/04/02 02:01:16;;;;;;;12.40;2.85;;;;;;;;;;5033623;28;20442;-29
2024/04/02 02:03:43;;;;;;;13.00;2.22;;;;;;;;;;5023471;28;20041;-28
2024/04/02 02:06:10;;;;;;;14.45;2.17;;;;;;;;;;5033490;28;20061;-29
2024/04/02 02:08:37;;;;;;;14.02;3.00;;;;;;;;;;5033770;28;20476;-29
2024/04/02 02:11:04;;;;;;;12.07;2.33;;;;;;;;;;5032883;28;20033;-29
2024/04/02 02:13:35;;;;;;;16.00;2.78;;;;;;;;;;5033836;28;20507;-28
2024/04/02 02:16:02;;;;;;;16.20;2.60;;;;;;;;;;5029780;28;20400;-29
2024/04/02 02:18:30;;;;;;;18.83;2.63;;;;;;;;;;5032390;28;20499;-29
2024/04/02 02:20:58;;;;;;;8.93;2.28;;;;;;;;;;5033034;28;20033;-29
2024/04/02 02:23:25;;;;;;;13.95;2.70;;;;;;;;;;5033813;28;20411;-28
2024/04/02 02:25:53;;;;;;;16.08;2.40;;;;;;;;;;5014126;28;20041;-28
2024/04/02 02:28:20;;;;;;;13.05;2.50;;;;;;;;;;5032625;28;20021;-28
2024/04/02 02:30:47;;;;;;;14.13;2.40;;;;;;;;;;5036674;28;20033;-29
2024/04/02 02:33:14;;;;;;;16.42;2.30;;;;;;;;;;5037369;28;20431;-30
2024/04/02 02:35:41;;;;;;;9.98;2.33;;;;;;;;;;5016857;28;20381;-28
2024/04/02 02:38:08;;;;;;;11.45;2.47;;;;;;;;;;5033699;28;20036;-29
2024/04/02 02:40:35;;;;;;;11.57;2.13;;;;;;;;;;5040916;28;20029;-29
2024/04/02 02:43:02;;;;;;;14.55;2.17;;;;;;;;;;5048278;28;20044;-28
2024/04/02 02:45:29;;;;;;;11.10;2.35;;;;;;;;;;5041876;28;20029;-29
2024/04/02 02:47:56;;;;;;;12.02;2.28;;;;;;;;;;5034636;28;20032;-29
2024/04/02 02:50:23;;;;;;;9.60;2.20;;;;;;;;;;5034327;28;20492;-31
2024/04/02 02:52:50;;;;;;;7.78;1.70;;;;;;;;;;5033113;28;20064;-30
2024/04/02 02:55:17;;;;;;;8.38;2.03;;;;;;;;;;5034165;28;20112;-30
2024/04/02 02:57:44;;;;;;;7.63;2.20;;;;;;;;;;5035885;28;20047;-30
2024/04/02 03:00:12;;;;;;;8.55;1.52;;;;;;;;;;5034034;28;20033;-31
2024/04/02 03:02:39;;;;;;;10.18;1.73;;;;;;;;;;5047340;28;20037;-30
2024/04/02 03:05:06;;;;;;;11.98;1.98;;;;;;;;;;5052023;28;20017;-30
2024/04/02 03:07:33;;;;;;;9.40;1.98;;;;;;;;;;5051843;28;20163;-30
2024/04/02 03:10:00;;;;;;;4.43;1.40;;;;;;;;;;5049052;28;20514;-30
2024/04/02 03:12:27;;;;;;;4.53;1.35;;;;;;;;;;5052115;28;20044;-31
2024/04/02 03:14:54;;;;;;;5.97;2.22;;;;;;;;;;5051787;28;20044;-30
2024/04/02 03:17:21;;;;;;;5.78;1.95;;;;;;;;;;5050393;28;20434;-30
2024/04/02 03:19:48;;;;;;;6.13;1.77;;;;;;;;;;5051689;28;20036;-30
2024/04/02 03:22:15;;;;;;;6.13;1.80;;;;;;;;;;5051849;28;20097;-30
2024/04/02 03:24:42;;;;;;;4.38;1.30;;;;;;;;;;5051890;28;20079;-30
2024/04/02 03:27:10;;;;;;;4.85;1.67;;;;;;;;;;5051791;28;20521;-30
2024/04/02 03:29:37;;;;;;;7.95;1.88;;;;;;;;;;5051502;28;20107;-30
2024/04/02 03:32:04;;;;;;;5.50;1.55;;;;;;;;;;5038430;28;20079;-30
2024/04/02 03:34:31;;;;;;;6.95;1.70;;;;;;;;;;5031448;28;20040;-30
2024/04/02 03:36:58;;;;;;;6.68;1.80;;;;;;;;;;5032058;28;20029;-30
2024/04/02 03:39:25;;;;;;;4.95;1.60;;;;;;;;;;5031732;28;20033;-30
2024/04/02 03:41:52;;;;;;;7.35;1.73;;;;;;;;;;5031992;28;20035;-30
2024/04/02 03:44:19;;;;;;;7.05;1.70;;;;;;;;;;5031805;28;20034;-30
2024/04/02 03:46:46;;;;;;;4.15;1.42;;;;;;;;;;5031820;28;20032;-30
2024/04/02 03:49:13;;;;;;;4.18;1.55;;;;;;;;;;5013894;28;20072;-30
2024/04/02 03:51:40;;;;;;;5.15;1.35;;;;;;;;;;5031486;28;20035;-30
2024/04/02 03:54:07;;;;;;;5.32;1.50;;;;;;;;;;5031842;28;20024;-30
2024/04/02 03:56:34;;;;;;;5.88;1.23;;;;;;;;;;5031557;28;20040;-30
2024/04/02 03:59:01;;;;;;;5.60;1.48;;;;;;;;;;5031714;28;20065;-30
2024/04/02 04:01:28;;;;;;;7.72;1.77;;;;;;;;;;5031420;28;20125;-30
2024/04/02 04:03:55;;;;;;;5.47;1.30;;;;;;;;;;5031503;28;20028;-30
2024/04/02 04:06:23;;;;;;;3.40;1.40;;;;;;;;;;5031899;28;20060;-30
2024/04/02 04:08:50;;;;;;;3.55;1.48;;;;;;;;;;5031883;28;20029;-30
2024/04/02 04:11:17;;;;;;;6.05;1.30;;;;;;;;;;5032130;28;20032;-30
2024/04/02 04:13:44;;;;;;;4.93;1.25;;;;;;;;;;5032111;28;20053;-30
2024/04/02 04:16:11;;;;;;;4.53;1.55;;;;;;;;;;5032134;28;20056;-30
2024/04/02 04:18:38;;;;;;;3.95;1.30;;;;;;;;;;5032018;28;20029;-30
2024/04/02 04:21:05;;;;;;;3.33;1.13;;;;;;;;;;5031920;28;20053;-30
2024/04/02 04:23:32;;;;;;;5.30;1.38;;;;;;;;;;5031827;28;20492;-30
2024/04/02 04:26:01;;;;;;;5.57;1.55;;;;;;;;;;5031983;28;20021;-30
2024/04/02 04:28:28;;;;;;;2.65;0.98;;;;;;;;;;5032008;28;20037;-30
2024/04/02 04:30:56;;;;;;;3.80;1.35;;;;;;;;;;5031803;28;20025;-30
2024/04/02 04:33:23;;;;;;;3.17;1.33;;;;;;;;;;5031738;28;20073;-30
2024/04/02 04:35:51;;;;;;;5.45;1.30;;;;;;;;;;5031707;28;20036;-30
2024/04/02 04:38:18;;;;;;;3.60;1.25;;;;;;;;;;5031816;28;20044;-30
2024/04/02 04:40:46;;;;;;;4.47;1.10;;;;;;;;;;5031592;28;20443;-30
2024/04/02 04:43:14;;;;;;;3.35;1.00;;;;;;;;;;5031676;28;20394;-30
2024/04/02 04:45:41;;;;;;;3.20;1.15;;;;;;;;;;5031692;28;20036;-30
2024/04/02 04:48:08;;;;;;;4.25;1.17;;;;;;;;;;5031325;28;20033;-30
2024/04/02 04:50:35;;;;;;;4.95;1.02;;;;;;;;;;5031622;28;20391;-30
2024/04/02 04:53:02;;;;;;;3.95;1.10;;;;;;;;;;5031655;28;20369;-30
2024/04/02 04:55:30;;;;;;;2.63;1.10;;;;;;;;;;5031605;28;20410;-30
2024/04/02 04:58:00;;;;;;;2.88;1.20;;;;;;;;;;5031635;28;20369;-30
2024/04/02 05:00:27;;;;;;;3.58;1.10;;;;;;;;;;5031341;28;20037;-30
2024/04/02 05:02:54;;;;;;;3.58;1.05;;;;;;;;;;5031851;28;20076;-30
2024/04/02 05:05:21;;;;;;;3.67;0.95;;;;;;;;;;5031383;28;20037;-30
2024/04/02 05:07:58;;;;;;;2.55;0.93;;;;;;;;;;5031479;28;20022;-30
2024/04/02 05:10:25;;;;;;;3.88;1.10;;;;;;;;;;5031205;28;20116;-30
2024/04/02 05:12:52;;;;;;;4.63;1.10;;;;;;;;;;5031428;28;20116;-30
2024/04/02 05:15:19;;;;;;;1.95;0.80;;;;;;;;;;5031519;28;20022;-30
2024/04/02 05:17:46;;;;;;;4.28;1.02;;;;;;;;;;5031466;28;20056;-30
2024/04/02 05:20:13;;;;;;;4.65;1.25;;;;;;;;;;5031229;28;20076;-30
2024/04/02 05:22:41;;;;;;;3.85;1.17;;;;;;;;;;5031410;28;20021;-30
2024/04/02 05:25:08;;;;;;;2.53;0.90;;;;;;;;;;5031191;28;20057;-30
2024/04/02 05:27:35;;;;;;;1.52;0.88;;;;;;;;;;5031335;28;20075;-30
2024/04/02 05:30:02;;;;;;;3.38;0.90;;;;;;;;;;5031223;28;20087;-30
2024/04/02 05:32:29;;;;;;;3.45;0.98;;;;;;;;;;5031111;28;20099;-30
2024/04/02 05:34:55;;;;;;;2.45;0.93;;;;;;;;;;5031276;28;20045;-30
2024/04/02 05:37:24;;;;;;;2.88;1.00;;;;;;;;;;5031200;28;20025;-30
2024/04/02 05:39:51;;;;;;;4.65;0.88;;;;;;;;;;5031079;28;20578;-30
2024/04/02 05:42:18;;;;;;;2.60;1.10;;;;;;;;;;5031030;28;20052;-30
2024/04/02 05:44:45;;;;;;;4.78;1.20;;;;;;;;;;5031125;28;20025;-30
2024/04/02 05:47:11;;;;;;;4.97;1.55;;;;;;;;;;5031199;28;20036;-30
2024/04/02 05:49:38;;;;;;;4.03;1.15;;;;;;;;;;5031015;28;20877;-30
2024/04/02 05:52:06;;;;;;;4.47;0.98;;;;;;;;;;5031045;28;20033;-30
2024/04/02 05:54:33;;;;;;;2.55;1.00;;;;;;;;;;5031046;28;20029;-30
2024/04/02 05:57:00;;;;;;;2.35;1.05;;;;;;;;;;5030970;28;20034;-30
2024/04/02 05:59:27;;;;;;;3.15;1.02;;;;;;;;;;5030876;28;20024;-30
2024/04/02 06:01:54;;;;;;;2.53;0.90;;;;;;;;;;5042642;28;20372;-30
2024/04/02 06:04:21;;;;;;;3.40;1.00;;;;;;;;;;5053163;28;20490;-30
2024/04/02 06:06:48;;;;;;;3.05;0.90;;;;;;;;;;5054483;28;20021;-30
2024/04/02 06:09:15;;;;;;;2.53;1.00;;;;;;;;;;5054275;28;20055;-30
2024/04/02 06:11:42;;;;;;;2.33;0.77;;;;;;;;;;5054408;28;20032;-30
2024/04/02 06:14:09;;;;;;;3.47;0.98;;;;;;;;;;5054655;28;20432;-30
2024/04/02 06:16:36;;;;;;;2.40;0.93;;;;;;;;;;5054107;28;20094;-30
2024/04/02 06:19:03;;;;;;;2.90;1.20;;;;;;;;;;5054107;28;20032;-30
2024/04/02 06:21:31;;;;;;;6.53;1.10;;;;;;;;;;5053749;28;20174;-30
2024/04/02 06:23:57;;;;;;;4.63;0.90;;;;;;;;;;5054171;28;20074;-30
2024/04/02 06:26:24;;;;;;;2.53;1.15;;;;;;;;;;5054024;28;20468;-30
2024/04/02 06:28:51;;;;;;;2.58;0.77;;;;;;;;;;5053958;28;20515;-30
2024/04/02 06:31:18;;;;;;;2.90;1.00;;;;;;;;;;5053856;28;20461;-30
2024/04/02 06:33:45;;;;;;;2.20;0.80;;;;;;;;;;5014158;28;20157;-30
2024/04/02 06:36:13;;;;;;;5.30;1.27;;;;;;;;;;5014213;28;20041;-30
2024/04/02 06:38:40;;;;;;;2.88;0.90;;;;;;;;;;5014105;28;20481;-30
2024/04/02 06:41:08;;;;;;;1.65;0.80;;;;;;;;;;5014065;28;20041;-30
2024/04/02 06:43:35;;;;;;;3.67;1.23;;;;;;;;;;5013954;28;20080;-30
2024/04/02 06:46:02;;;;;;;2.97;1.20;;;;;;;;;;5013968;28;20045;-30
2024/04/02 06:48:29;;;;;;;2.28;0.90;;;;;;;;;;5014210;28;20038;-30
2024/04/02 06:51:02;;;;;;;5.32;1.10;;;;;;;;;;5013867;28;20034;-30
2024/04/02 06:53:29;;;;;;;3.33;0.93;;;;;;;;;;5013835;28;20481;-30
2024/04/02 06:55:56;;;;;;;2.53;1.00;;;;;;;;;;5013799;28;20029;-30
2024/04/02 06:58:24;;;;;;;3.45;0.70;;;;;;;;;;5014118;28;20045;-30
2024/04/02 07:04:01;;;;;;;2.15;1.02;;;;;;;;;;5015282;28;20056;-30
2024/04/02 07:09:38;;;;;;;2.30;0.73;;;;;;;;;;5015499;28;20020;-30
2024/04/02 07:15:15;;;;;;;2.65;0.90;;;;;;;;;;5014521;28;20696;-30
2024/04/02 07:17:42;;;;;;;2.42;1.02;;;;;;;;;;5013570;28;20033;-30
2024/04/02 07:20:09;;;;;;;2.72;0.90;;;;;;;;;;5013201;28;20458;-30
2024/04/02 07:22:36;;;;;;;4.10;1.13;;;;;;;;;;5013262;28;20026;-30
2024/04/02 07:25:04;;;;;;;2.53;0.90;;;;;;;;;;5013311;28;20026;-30
2024/04/02 07:27:33;;;;;;;2.85;0.70;;;;;;;;;;5013123;28;20033;-30
2024/04/02 07:30:00;;;;;;;4.60;0.82;;;;;;;;;;5013093;28;20029;-30
2024/04/02 07:32:27;;;;;;;2.92;0.88;;;;;;;;;;5031339;28;20057;-30
2024/04/02 07:34:54;;;;;;;2.03;0.80;;;;;;;;;;5052753;28;20055;-30
2024/04/02 07:37:21;;;;;;;3.03;0.85;;;;;;;;;;5052780;28;20021;-30
2024/04/02 07:39:48;;;;;;;2.63;1.00;;;;;;;;;;5052572;28;20044;-30
2024/04/02 07:42:15;;;;;;;2.33;0.60;;;;;;;;;;5052541;28;20032;-30
2024/04/02 07:44:42;;;;;;;3.20;1.00;;;;;;;;;;5052678;28;20032;-30
2024/04/02 07:47:09;;;;;;;2.30;0.80;;;;;;;;;;5052472;28;20138;-30
2024/04/02 07:49:36;;;;;;;1.77;0.70;;;;;;;;;;5052448;28;20064;-30
2024/04/02 07:52:03;;;;;;;2.58;0.70;;;;;;;;;;5052457;28;20109;-30
2024/04/02 07:54:30;;;;;;;3.33;0.90;;;;;;;;;;5052415;28;20041;-30
2024/04/02 07:56:57;;;;;;;2.38;0.63;;;;;;;;;;5052362;28;20369;-30
2024/04/02 07:59:24;;;;;;;2.55;0.70;;;;;;;;;;5052274;28;20032;-30
2024/04/02 08:01:51;;;;;;;2.78;0.70;;;;;;;;;;5052214;28;20060;-30
2024/04/02 08:04:20;;;;;;;1.85;0.80;;;;;;;;;;5043727;28;20068;-30
2024/04/02 08:06:47;;;;;;;2.45;0.75;;;;;;;;;;5032228;28;20099;-30
2024/04/02 08:09:14;;;;;;;1.45;0.65;;;;;;;;;;5030864;28;20088;-30
2024/04/02 08:11:43;;;;;;;2.63;0.95;;;;;;;;;;5032152;28;20025;-30
2024/04/02 08:14:14;;;;;;;2.45;0.85;;;;;;;;;;5032156;28;20029;-30
2024/04/02 08:16:41;;;;;;;1.48;0.63;;;;;;;;;;5032056;28;20037;-30
2024/04/02 08:19:08;;;;;;;1.88;0.70;;;;;;;;;;5032078;28;20025;-30
2024/04/02 08:21:35;;;;;;;2.97;0.93;;;;;;;;;;5031894;28;20045;-30
2024/04/02 08:24:02;;;;;;;2.28;0.80;;;;;;;;;;5031324;28;20029;-30
2024/04/02 08:26:29;;;;;;;2.08;0.80;;;;;;;;;;5032042;28;20032;-30
2024/04/02 08:28:56;;;;;;;2.58;0.90;;;;;;;;;;5031800;28;20034;-30
2024/04/02 08:31:23;;;;;;;4.07;0.90;;;;;;;;;;5031698;28;20091;-30
2024/04/02 08:33:50;;;;;;;2.30;0.60;;;;;;;;;;5031780;28;20476;-30
2024/04/02 08:36:17;;;;;;;2.08;0.65;;;;;;;;;;5031767;28;20029;-30
2024/04/02 08:38:44;;;;;;;2.70;0.90;;;;;;;;;;5031595;28;20025;-30
2024/04/02 08:41:12;;;;;;;4.05;0.90;;;;;;;;;;5031683;28;20037;-30
2024/04/02 08:43:41;;;;;;;3.22;0.90;;;;;;;;;;5031695;28;20063;-30
2024/04/02 08:46:08;;;;;;;2.08;0.93;;;;;;;;;;5031700;28;20091;-30
2024/04/02 08:48:36;;;;;;;2.03;0.90;;;;;;;;;;5031557;28;20032;-30
2024/04/02 08:51:05;;;;;;;4.65;1.17;;;;;;;;;;5031659;28;20029;-30
2024/04/02 08:53:34;;;;;;;2.85;1.15;;;;;;;;;;5031521;28;20088;-30
2024/04/02 08:56:02;;;;;;;4.75;1.10;;;;;;;;;;5031609;28;20116;-30
2024/04/02 08:58:30;;;;;;;3.10;1.00;;;;;;;;;;5031565;28;20112;-30
2024/04/02 09:00:57;;;;;;;3.35;1.08;;;;;;;;;;5031128;28;20033;-30
2024/04/02 09:03:24;;;;;;;1.70;0.60;;;;;;;;;;5031051;28;20029;-30
2024/04/02 09:05:51;;;;;;;2.33;0.90;;;;;;;;;;5031422;28;20030;-30
2024/04/02 09:08:18;;;;;;;2.25;0.85;;;;;;;;;;5031602;28;20030;-30
2024/04/02 09:10:45;;;;;;;1.75;0.80;;;;;;;;;;5031380;28;20056;-30
2024/04/02 09:13:12;;;;;;;3.03;0.80;;;;;;;;;;5031495;28;20052;-30
2024/04/02 09:15:40;;;;;;;2.15;0.88;;;;;;;;;;5031459;28;20025;-30
2024/04/02 09:18:07;;;;;;;3.72;0.93;;;;;;;;;;5031513;28;20037;-30
2024/04/02 09:20:36;;;;;;;3.38;0.88;;;;;;;;;;5031287;28;20045;-30
2024/04/02 09:23:04;;;;;;;3.33;1.00;;;;;;;;;;5031250;28;20041;-30
2024/04/02 09:25:31;;;;;;;2.88;0.88;;;;;;;;;;5031392;28;20033;-30
2024/04/02 09:27:58;;;;;;;3.65;0.98;;;;;;;;;;5031343;28;20018;-30
2024/04/02 09:30:26;;;;;;;2.20;1.05;;;;;;;;;;5031218;28;20026;-30
2024/04/02 09:32:53;;;;;;;2.65;0.80;;;;;;;;;;5031054;28;20519;-30
2024/04/02 09:35:40;;;;;;;2.72;1.00;;;;;;;;;;5033009;28;20104;-30
2024/04/02 09:38:08;;;;;;;3.17;0.80;;;;;;;;;;5034507;28;20527;-30
2024/04/02 09:40:36;;;;;;;1.98;0.80;;;;;;;;;;5033676;28;20068;-30
2024/04/02 09:43:03;;;;;;;2.60;1.00;;;;;;;;;;5034956;28;20029;-30
2024/04/02 09:45:30;;;;;;;3.35;0.90;;;;;;;;;;5034925;28;20029;-30
2024/04/02 09:47:59;;;;;;;2.10;0.82;;;;;;;;;;5034977;28;20084;-30
2024/04/02 09:50:27;;;;;;;3.60;0.95;;;;;;;;;;5034803;28;20440;-30
2024/04/02 09:52:54;;;;;;;3.03;1.00;;;;;;;;;;5034855;28;20052;-30
2024/04/02 09:55:22;;;;;;;2.83;0.98;;;;;;;;;;5036683;28;20099;-30
2024/04/02 09:57:50;;;;;;;2.83;1.05;;;;;;;;;;5045486;28;20060;-30
2024/04/02 10:00:17;;;;;;;2.97;0.93;;;;;;;;;;5034455;28;20068;-30
2024/04/02 10:02:44;;;;;;;1.58;0.68;;;;;;;;;;5034854;28;20033;-30
2024/04/02 10:05:18;;;;;;;3.15;0.90;;;;;;;;;;5034564;28;20029;-30
2024/04/02 10:07:50;;;;;;;5.68;1.00;;;;;;;;;;5034468;28;20029;-30
2024/04/02 10:10:17;;;;;;;6.18;1.13;;;;;;;;;;5034372;28;20033;-30
2024/04/02 10:12:51;;;;;;;2.60;0.93;;;;;;;;;;5034419;28;20372;-30
2024/04/02 10:15:18;;;;;;;4.35;0.90;;;;;;;;;;5034181;28;20029;-30
2024/04/02 10:17:45;;;;;;;4.53;1.35;;;;;;;;;;5034345;28;20061;-30
2024/04/02 10:20:25;;;;;;;2.03;0.90;;;;;;;;;;5034170;28;20033;-30
2024/04/02 10:22:57;;;;;;;4.30;1.20;;;;;;;;;;5034221;28;20037;-30
2024/04/02 10:25:24;;;;;;;6.47;1.25;;;;;;;;;;5034140;28;20399;-30
2024/04/02 10:27:57;;;;;;;4.97;1.00;;;;;;;;;;5034228;28;20021;-30
2024/04/02 10:30:25;;;;;;;4.32;0.90;;;;;;;;;;5033977;28;20068;-31
2024/04/02 10:32:53;;;;;;;2.45;1.00;;;;;;;;;;5033651;28;20053;-30
2024/04/02 10:35:29;;;;;;;4.53;1.05;;;;;;;;;;5034062;28;20357;-30
2024/04/02 10:37:57;;;;;;;4.20;1.17;;;;;;;;;;5033984;28;20092;-30
2024/04/02 10:40:25;;;;;;;2.92;1.10;;;;;;;;;;5033818;28;20060;-30
2024/04/02 10:42:53;;;;;;;5.95;1.30;;;;;;;;;;5033851;28;20491;-31
2024/04/02 10:45:20;;;;;;;3.28;1.20;;;;;;;;;;5033889;28;20364;-30
2024/04/02 10:47:48;;;;;;;4.93;1.10;;;;;;;;;;5033142;28;20517;-30
2024/04/02 10:50:15;;;;;;;3.25;1.05;;;;;;;;;;5033653;28;20057;-30
2024/04/02 10:52:43;;;;;;;4.10;1.00;;;;;;;;;;5033736;28;20109;-30
2024/04/02 10:55:10;;;;;;;2.20;0.93;;;;;;;;;;5033751;28;20481;-30
2024/04/02 10:57:38;;;;;;;4.07;1.02;;;;;;;;;;5033679;28;20117;-30
2024/04/02 11:00:07;;;;;;;3.67;1.20;;;;;;;;;;5033454;28;20049;-30
2024/04/02 11:02:34;;;;;;;5.65;1.00;;;;;;;;;;5033413;28;20523;-30
2024/04/02 11:05:01;;;;;;;2.17;0.77;;;;;;;;;;5033505;28;20053;-30
2024/04/02 11:07:29;;;;;;;8.60;1.50;;;;;;;;;;5033492;28;20771;-30
2024/04/02 11:09:56;;;;;;;4.95;1.13;;;;;;;;;;5033356;28;20502;-30
2024/04/02 11:12:24;;;;;;;3.50;0.90;;;;;;;;;;5033361;28;20025;-30
2024/04/02 11:14:53;;;;;;;4.25;1.00;;;;;;;;;;5031868;28;20045;-30
2024/04/02 11:17:20;;;;;;;3.17;0.98;;;;;;;;;;5033302;28;20107;-30
2024/04/02 11:19:47;;;;;;;4.15;1.02;;;;;;;;;;5033118;28;20144;-30
2024/04/02 11:25:14;;;;;;;4.70;1.30;;;;;;;;;;5033274;28;20095;-30
2024/04/02 11:27:42;;;;;;;3.65;0.90;;;;;;;;;;5033128;28;20029;-30
2024/04/02 11:30:12;;;;;;;6.32;1.40;;;;;;;;;;5032939;28;20030;-30
2024/04/02 11:32:39;;;;;;;5.50;1.27;;;;;;;;;;5032743;28;20049;-30
2024/04/02 11:35:06;;;;;;;6.13;1.10;;;;;;;;;;5032755;28;20108;-30
2024/04/02 11:37:33;;;;;;;4.07;1.20;;;;;;;;;;5032709;28;20045;-30
2024/04/02 11:40:01;;;;;;;5.45;1.17;;;;;;;;;;5032615;28;20041;-30
2024/04/02 11:42:30;;;;;;;5.32;1.30;;;;;;;;;;5032698;28;20083;-30
2024/04/02 11:45:03;;;;;;;4.55;1.00;;;;;;;;;;5032691;28;20056;-30
2024/04/02 11:47:31;;;;;;;5.88;1.13;;;;;;;;;;5032667;28;20013;-30
2024/04/02 11:49:58;;;;;;;4.18;1.10;;;;;;;;;;5032474;28;20063;-30
2024/04/02 11:52:25;;;;;;;6.18;1.00;;;;;;;;;;5032558;28;20079;-30
2024/04/02 11:54:52;;;;;;;4.85;1.20;;;;;;;;;;5032558;28;20021;-30
2024/04/02 12:00:11;;;;;;;2.97;0.98;;;;;;;;;;5031625;28;20514;-30
2024/04/02 12:02:48;;;;;;;4.90;1.13;;;;;;;;;;5031953;28;20529;-30
2024/04/02 12:05:15;;;;;;;5.32;0.82;;;;;;;;;;5031657;28;20021;-30
2024/04/02 12:07:43;;;;;;;5.43;1.48;;;;;;;;;;5031765;28;20025;-30
2024/04/02 12:10:11;;;;;;;3.65;1.05;;;;;;;;;;5031641;28;20029;-30
2024/04/02 12:12:37;;;;;;;5.18;1.15;;;;;;;;;;5031418;28;20130;-30
2024/04/02 12:15:09;;;;;;;5.63;1.20;;;;;;;;;;5031613;28;20018;-30
2024/04/02 12:17:36;;;;;;;5.28;1.15;;;;;;;;;;5031405;28;20032;-30
2024/04/02 12:20:04;;;;;;;4.75;0.95;;;;;;;;;;5029952;28;20044;-30
2024/04/02 12:22:31;;;;;;;4.90;0.95;;;;;;;;;;5031487;28;20029;-30
2024/04/02 12:24:58;;;;;;;6.28;1.20;;;;;;;;;;5028642;28;20031;-30
2024/04/02 12:27:25;;;;;;;11.02;1.35;;;;;;;;;;5033763;28;20075;-30
2024/04/02 12:29:55;;;;;;;7.13;1.35;;;;;;;;;;5037380;28;20033;-30
2024/04/02 12:32:23;;;;;;;8.68;1.15;;;;;;;;;;5029093;28;20056;-30
2024/04/02 12:34:50;;;;;;;11.10;1.42;;;;;;;;;;5031328;28;20037;-30
2024/04/02 12:37:17;;;;;;;13.13;1.55;;;;;;;;;;5030009;28;20033;-30
2024/04/02 12:39:46;;;;;;;16.83;2.00;;;;;;;;;;5031023;28;20026;-30
2024/04/02 12:42:15;;;;;;;13.82;1.70;;;;;;;;;;5031133;28;20079;-31
2024/04/02 12:44:42;;;;;;;19.17;2.50;;;;;;;;;;5031004;28;20033;-30
2024/04/02 12:47:09;;;;;;;13.43;1.67;;;;;;;;;;5031057;28;20044;-31
2024/04/02 12:49:37;;;;;;;8.68;1.45;;;;;;;;;;5030794;28;20045;-30
2024/04/02 12:52:08;;;;;;;11.38;1.52;;;;;;;;;;5029748;28;20511;-30
2024/04/02 12:54:36;;;;;;;11.13;1.70;;;;;;;;;;5030257;28;20053;-30
2024/04/02 12:57:02;;;;;;;10.35;1.50;;;;;;;;;;5033450;28;20420;-31
2024/04/02 12:59:30;;;;;;;11.85;2.03;;;;;;;;;;5017828;28;20503;-31
2024/04/02 13:01:57;;;;;;;8.43;1.45;;;;;;;;;;5018630;28;20132;-31
2024/04/02 13:04:24;;;;;;;11.55;2.10;;;;;;;;;;5009253;28;20092;-31
2024/04/02 13:06:52;;;;;;;9.80;2.15;;;;;;;;;;5029587;28;20044;-31
2024/04/02 13:09:22;;;;;;;12.13;1.77;;;;;;;;;;5024852;28;20121;-31
2024/04/02 13:11:49;;;;;;;19.25;2.47;;;;;;;;;;5021341;28;20109;-32
2024/04/02 13:14:17;;;;;;;24.42;2.47;;;;;;;;;;5022729;28;20510;-31
2024/04/02 13:16:44;;;;;;;15.95;2.17;;;;;;;;;;5027843;28;20392;-32
2024/04/02 13:19:11;;;;;;;13.52;2.25;;;;;;;;;;5028118;28;20076;-31
2024/04/02 13:21:39;;;;;;;14.75;2.70;;;;;;;;;;5022669;28;20073;-32
2024/04/02 13:24:07;;;;;;;16.63;2.45;;;;;;;;;;5025767;28;20092;-31
2024/04/02 13:26:35;;;;;;;10.75;2.17;;;;;;;;;;5026288;28;20061;-31
2024/04/02 13:29:04;;;;;;;12.90;2.65;;;;;;;;;;5028827;28;20131;-32
2024/04/02 13:31:32;;;;;;;17.70;2.35;;;;;;;;;;5025981;28;20055;-31
2024/04/02 13:34:01;;;;;;;16.10;2.47;;;;;;;;;;5034872;28;20082;-32
2024/04/02 13:36:28;;;;;;;19.17;3.28;;;;;;;;;;5034632;28;20108;-31
2024/04/02 13:38:56;;;;;;;19.33;2.80;;;;;;;;;;5034582;28;20057;-32
2024/04/02 13:41:26;;;;;;;26.35;2.90;;;;;;;;;;5034510;28;20054;-32
2024/04/02 13:43:54;;;;;;;21.40;2.42;;;;;;;;;;5034246;28;20030;-31
2024/04/02 13:46:22;;;;;;;22.33;3.42;;;;;;;;;;5034566;28;20029;-31
2024/04/02 13:48:50;;;;;;;43.72;4.03;;;;;;;;;;5034298;28;20037;-31
2024/04/02 13:51:18;;;;;;;42.50;4.30;;;;;;;;;;5034507;28;20028;-32
2024/04/02 13:53:46;;;;;;;39.53;3.70;;;;;;;;;;5034069;28;20060;-31
2024/04/02 13:56:14;;;;;;;30.48;3.63;;;;;;;;;;5034382;28;20044;-31
2024/04/02 13:58:41;;;;;;;32.85;3.10;;;;;;;;;;5030071;28;20029;-31
2024/04/02 14:01:08;;;;;;;26.92;3.33;;;;;;;;;;5023222;28;20033;-31
2024/04/02 14:03:36;;;;;;;36.75;4.32;;;;;;;;;;5031650;28;20364;-31
2024/04/02 14:06:04;;;;;;;47.30;4.20;;;;;;;;;;5034197;28;20484;-30
2024/04/02 14:08:31;;;;;;;53.33;4.70;;;;;;;;;;5034024;28;20036;-31
2024/04/02 14:10:59;;;;;;;44.65;4.55;;;;;;;;;;5033962;28;20032;-30
2024/04/02 14:13:26;;;;;;;47.72;5.05;;;;;;;;;;5034023;28;20034;-31
2024/04/02 14:15:54;;;;;;;50.75;4.90;;;;;;;;;;5033628;28;20029;-31
2024/04/02 14:18:21;;;;;;;58.30;5.88;;;;;;;;;;5033966;28;20030;-31
2024/04/02 14:20:55;;;;;;;47.75;5.70;;;;;;;;;;5032328;28;20734;-31
2024/04/02 14:23:22;;;;;;;70.57;7.25;;;;;;;;;;5043061;28;20394;-31
2024/04/02 14:25:59;;;;;;;52.28;7.05;;;;;;;;;;5033793;28;20053;-31
2024/04/02 14:28:30;;;;;;;60.17;6.05;;;;;;;;;;5014347;28;20040;-31
2024/04/02 14:31:01;;;;;;;72.95;6.88;;;;;;;;;;5020681;28;20045;-31
2024/04/02 14:33:38;;;;;;;71.18;6.93;;;;;;;;;;5033384;28;20112;-31
2024/04/02 14:36:05;;;;;;;74.22;7.05;;;;;;;;;;5028143;28;20468;-31
2024/04/02 14:38:32;;;;;;;64.43;5.85;;;;;;;;;;5024827;28;20030;-30
2024/04/02 14:41:06;;;;;;;65.10;6.55;;;;;;;;;;5023213;28;20076;-31
2024/04/02 14:43:34;;;;;;;52.40;6.85;;;;;;;;;;5033387;28;20037;-31
2024/04/02 14:46:01;;;;;;;63.15;6.57;;;;;;;;;;5033484;28;20071;-31
2024/04/02 14:48:31;;;;;;;67.05;6.38;;;;;;;;;;5023917;28;20484;-31
2024/04/02 14:51:01;;;;;;;70.20;7.03;;;;;;;;;;5019362;28;20026;-31
2024/04/02 14:53:28;;;;;;;60.53;6.82;;;;;;;;;;5019575;28;20033;-31
2024/04/02 14:56:05;;;;;;;56.92;6.55;;;;;;;;;;5017886;28;20703;-31